createdAt,value
2023-02-06T00:01:25.194Z,-5.85
2023-02-06T00:03:52.703Z,-5.83
2023-02-06T00:06:20.568Z,-5.81
2023-02-06T00:08:48.271Z,-5.78
2023-02-06T00:11:19.567Z,-5.76
2023-02-06T00:13:47.124Z,-5.74
2023-02-06T00:16:18.863Z,-5.71
2023-02-06T00:18:46.890Z,-5.69
2023-02-06T00:21:14.847Z,-5.71
2023-02-06T00:23:42.357Z,-5.74
2023-02-06T00:26:09.949Z,-5.75
2023-02-06T00:28:38.467Z,-5.75
2023-02-06T00:31:07.489Z,-5.74
2023-02-06T00:33:35.900Z,-5.74
2023-02-06T00:36:05.062Z,-5.74
2023-02-06T00:38:32.837Z,-5.73
2023-02-06T00:41:00.532Z,-5.71
2023-02-06T00:43:27.978Z,-5.72
2023-02-06T00:45:58.389Z,-5.74
2023-02-06T00:48:26.136Z,-5.77
2023-02-06T00:50:54.055Z,-5.77
2023-02-06T00:53:22.014Z,-5.78
2023-02-06T00:55:49.611Z,-5.78
2023-02-06T00:58:17.245Z,-5.83
2023-02-06T01:00:44.805Z,-5.86
2023-02-06T01:03:12.769Z,-5.86
2023-02-06T01:05:40.357Z,-5.87
2023-02-06T01:08:07.884Z,-5.86
2023-02-06T01:10:35.429Z,-5.87
2023-02-06T01:13:02.970Z,-5.87
2023-02-06T01:15:30.388Z,-5.86
2023-02-06T01:17:57.856Z,-5.90
2023-02-06T01:20:25.482Z,-5.89
2023-02-06T01:22:53.316Z,-5.91
2023-02-06T01:25:20.836Z,-5.93
2023-02-06T01:27:48.273Z,-5.95
2023-02-06T01:30:15.838Z,-5.96
2023-02-06T01:32:43.391Z,-5.94
2023-02-06T01:35:12.485Z,-5.92
2023-02-06T01:37:41.209Z,-5.93
2023-02-06T01:40:13.037Z,-5.93
2023-02-06T01:42:40.520Z,-5.95
2023-02-06T01:45:26.436Z,-5.94
2023-02-06T01:48:02.506Z,-5.93
2023-02-06T01:50:32.671Z,-5.94
2023-02-06T01:53:01.866Z,-5.92
2023-02-06T01:55:29.926Z,-5.92
2023-02-06T01:58:01.157Z,-5.93
2023-02-06T02:00:28.672Z,-5.93
2023-02-06T02:02:56.145Z,-5.92
2023-02-06T02:05:23.791Z,-5.88
2023-02-06T02:08:02.194Z,-5.87
2023-02-06T02:10:31.404Z,-5.83
2023-02-06T02:12:59.051Z,-5.83
2023-02-06T02:15:39.708Z,-5.81
2023-02-06T02:18:21.328Z,-5.81
2023-02-06T02:21:07.528Z,-5.79
2023-02-06T02:23:47.962Z,-5.76
2023-02-06T02:26:50.084Z,-5.74
2023-02-06T02:29:38.813Z,-5.72
2023-02-06T02:32:20.083Z,-5.68
2023-02-06T02:34:56.571Z,-5.63
2023-02-06T02:37:47.182Z,-5.60
2023-02-06T02:40:56.349Z,-5.56
2023-02-06T02:43:43.796Z,-5.55
2023-02-06T02:46:21.600Z,-5.54
2023-02-06T02:48:52.289Z,-5.55
2023-02-06T02:51:19.857Z,-5.57
2023-02-06T02:53:47.377Z,-5.59
2023-02-06T02:56:21.569Z,-5.62
2023-02-06T02:58:57.113Z,-5.64
2023-02-06T03:01:34.148Z,-5.63
2023-02-06T03:04:12.816Z,-5.64
2023-02-06T03:07:17.536Z,-5.61
2023-02-06T03:10:26.567Z,-5.61
2023-02-06T03:13:10.980Z,-5.66
2023-02-06T03:15:47.166Z,-5.68
2023-02-06T03:18:32.794Z,-5.73
2023-02-06T03:21:03.602Z,-5.78
2023-02-06T03:23:37.530Z,-5.77
2023-02-06T03:26:09.700Z,-5.77
2023-02-06T03:28:45.453Z,-5.78
2023-02-06T03:31:17.715Z,-5.82
2023-02-06T03:33:55.214Z,-5.84
2023-02-06T03:36:22.768Z,-5.80
2023-02-06T03:38:52.286Z,-5.80
2023-02-06T03:41:26.007Z,-5.84
2023-02-06T03:43:54.849Z,-5.87
2023-02-06T03:46:24.474Z,-5.89
2023-02-06T03:48:58.088Z,-5.90
2023-02-06T03:51:30.267Z,-5.92
2023-02-06T03:53:59.999Z,-5.92
2023-02-06T03:56:40.259Z,-5.93
2023-02-06T03:59:08.047Z,-5.92
2023-02-06T04:01:40.917Z,-5.88
2023-02-06T04:04:08.491Z,-5.86
2023-02-06T04:06:36.112Z,-5.84
2023-02-06T04:09:03.660Z,-5.84
2023-02-06T04:11:31.167Z,-5.83
2023-02-06T04:13:58.622Z,-5.81
2023-02-06T04:16:26.304Z,-5.77
2023-02-06T04:18:53.943Z,-5.76
2023-02-06T04:21:21.393Z,-5.64
2023-02-06T04:23:48.980Z,-5.50
2023-02-06T04:26:16.412Z,-5.42
2023-02-06T04:28:43.984Z,-5.42
2023-02-06T04:31:11.550Z,-5.40
2023-02-06T04:33:39.083Z,-5.38
2023-02-06T04:36:07.683Z,-5.40
2023-02-06T04:38:35.174Z,-5.42
2023-02-06T04:41:07.253Z,-5.40
2023-02-06T04:43:35.024Z,-5.40
2023-02-06T04:46:02.558Z,-5.36
2023-02-06T04:48:30.128Z,-5.36
2023-02-06T04:50:57.681Z,-5.33
2023-02-06T04:53:25.163Z,-5.30
2023-02-06T04:55:52.632Z,-5.25
2023-02-06T04:58:20.160Z,-5.26
2023-02-06T05:00:48.043Z,-5.28
2023-02-06T05:03:15.524Z,-5.31
2023-02-06T05:05:43.021Z,-5.37
2023-02-06T05:08:10.527Z,-5.38
2023-02-06T05:10:37.999Z,-5.37
2023-02-06T05:13:05.661Z,-5.36
2023-02-06T05:15:36.275Z,-5.33
2023-02-06T05:18:04.202Z,-5.30
2023-02-06T05:20:32.427Z,-5.30
2023-02-06T05:22:59.977Z,-5.28
2023-02-06T05:25:27.601Z,-5.29
2023-02-06T05:27:55.587Z,-5.28
2023-02-06T05:30:24.621Z,-5.25
2023-02-06T05:32:52.204Z,-5.20
2023-02-06T05:39:37.981Z,-5.01
2023-02-06T05:42:05.551Z,-4.94
2023-02-06T05:44:33.070Z,-4.89
2023-02-06T05:47:00.566Z,-4.85
2023-02-06T05:49:28.087Z,-4.86
2023-02-06T05:51:55.496Z,-4.82
2023-02-06T05:54:23.154Z,-4.76
2023-02-06T05:56:50.648Z,-4.70
2023-02-06T05:59:18.107Z,-4.62
2023-02-06T06:01:45.727Z,-4.57
2023-02-06T06:04:13.207Z,-4.51
2023-02-06T06:06:40.775Z,-4.48
2023-02-06T06:09:08.446Z,-4.44
2023-02-06T06:11:35.908Z,-4.43
2023-02-06T06:14:03.558Z,-4.39
2023-02-06T06:16:31.379Z,-4.33
2023-02-06T06:18:58.940Z,-4.29
2023-02-06T06:21:26.452Z,-4.25
2023-02-06T06:23:54.046Z,-4.22
2023-02-06T06:26:23.002Z,-4.21
2023-02-06T06:28:50.402Z,-4.18
2023-02-06T06:31:18.419Z,-4.15
2023-02-06T06:33:45.938Z,-4.12
2023-02-06T06:36:14.623Z,-4.11
2023-02-06T06:38:42.407Z,-4.09
2023-02-06T06:41:09.861Z,-4.04
2023-02-06T06:43:37.676Z,-4.00
2023-02-06T06:46:05.880Z,-3.99
2023-02-06T06:48:33.406Z,-3.97
2023-02-06T06:51:00.907Z,-3.95
2023-02-06T06:53:28.655Z,-3.92
2023-02-06T06:56:01.780Z,-3.90
2023-02-06T06:58:29.299Z,-3.89
2023-02-06T07:00:56.876Z,-3.85
2023-02-06T07:03:24.760Z,-3.86
2023-02-06T07:05:53.343Z,-3.84
2023-02-06T07:08:20.835Z,-3.83
2023-02-06T07:10:48.505Z,-3.84
2023-02-06T07:13:16.008Z,-3.77
2023-02-06T07:15:43.835Z,-3.73
2023-02-06T07:18:11.978Z,-3.69
2023-02-06T07:20:39.521Z,-3.65
2023-02-06T07:23:07.178Z,-3.63
2023-02-06T07:25:34.935Z,-3.57
2023-02-06T07:28:02.675Z,-3.51
2023-02-06T07:30:30.302Z,-3.51
2023-02-06T07:32:57.729Z,-3.46
2023-02-06T07:35:25.347Z,-3.43
2023-02-06T07:37:53.958Z,-3.40
2023-02-06T07:40:21.545Z,-3.35
2023-02-06T07:42:49.132Z,-3.27
2023-02-06T07:45:27.379Z,-3.16
2023-02-06T07:47:54.878Z,-3.06
2023-02-06T07:50:22.414Z,-2.96
2023-02-06T07:52:49.975Z,-2.91
2023-02-06T07:55:17.652Z,-2.85
2023-02-06T07:57:45.101Z,-2.81
2023-02-06T08:00:13.210Z,-2.72
2023-02-06T08:02:40.740Z,-2.66
2023-02-06T08:05:08.975Z,-2.58
2023-02-06T08:07:36.580Z,-2.50
2023-02-06T08:10:04.778Z,-2.47
2023-02-06T08:12:32.520Z,-2.52
2023-02-06T08:14:59.999Z,-2.44
2023-02-06T08:17:28.177Z,-2.42
2023-02-06T08:19:55.660Z,-2.43
2023-02-06T08:22:23.288Z,-2.36
2023-02-06T08:24:50.785Z,-2.32
2023-02-06T08:27:18.279Z,-2.25
2023-02-06T08:29:45.929Z,-2.20
2023-02-06T08:32:13.487Z,-2.11
2023-02-06T08:34:41.556Z,-2.05
2023-02-06T08:37:09.044Z,-2.17
2023-02-06T08:39:36.809Z,-2.18
2023-02-06T08:42:04.788Z,-2.19
2023-02-06T08:44:32.897Z,-2.22
2023-02-06T08:47:09.682Z,-2.21
2023-02-06T08:49:38.451Z,-2.15
2023-02-06T08:52:06.198Z,-2.11
2023-02-06T08:54:35.990Z,-1.99
2023-02-06T08:57:06.837Z,-1.96
2023-02-06T08:59:35.041Z,-1.90
2023-02-06T09:02:02.613Z,-1.92
2023-02-06T09:04:32.076Z,-1.93
2023-02-06T09:06:59.526Z,-1.82
2023-02-06T09:09:27.109Z,-1.88
2023-02-06T09:11:55.891Z,-1.83
2023-02-06T09:14:23.390Z,-1.78
2023-02-06T09:16:51.009Z,-1.79
2023-02-06T09:19:18.500Z,-1.85
2023-02-06T09:21:46.041Z,-1.83
2023-02-06T09:24:13.581Z,-1.87
2023-02-06T09:26:58.074Z,-1.96
2023-02-06T09:29:29.439Z,-2.04
2023-02-06T09:31:57.769Z,-2.06
2023-02-06T09:34:26.421Z,-2.15
2023-02-06T09:36:55.251Z,-2.16
2023-02-06T09:39:23.043Z,-2.13
2023-02-06T09:41:53.768Z,-2.10
2023-02-06T09:44:32.515Z,-2.10
2023-02-06T09:47:22.191Z,-2.08
2023-02-06T09:49:54.125Z,-2.00
2023-02-06T09:52:57.122Z,-1.92
2023-02-06T09:55:39.707Z,-1.90
2023-02-06T09:58:16.456Z,-1.77
2023-02-06T10:00:49.838Z,-1.55
2023-02-06T10:03:24.381Z,-1.38
2023-02-06T10:05:54.662Z,-1.19
2023-02-06T10:09:07.098Z,-0.94
2023-02-06T10:11:49.872Z,-0.73
2023-02-06T10:14:47.208Z,-0.56
2023-02-06T10:17:23.351Z,-0.42
2023-02-06T10:20:03.350Z,-0.41
2023-02-06T10:22:54.630Z,-0.54
2023-02-06T10:25:29.134Z,-0.54
2023-02-06T10:28:02.729Z,-0.83
2023-02-06T10:30:53.219Z,-1.18
2023-02-06T10:34:05.663Z,-1.44
2023-02-06T10:37:01.531Z,-1.52
2023-02-06T10:39:53.828Z,-1.57
2023-02-06T10:42:40.506Z,-1.83
2023-02-06T10:45:20.633Z,-1.90
2023-02-06T10:47:56.821Z,-1.95
2023-02-06T10:50:48.720Z,-2.11
2023-02-06T10:53:38.840Z,-2.21
2023-02-06T10:56:11.418Z,-2.30
2023-02-06T10:58:51.371Z,-2.19
2023-02-06T11:01:26.480Z,-2.04
2023-02-06T11:04:05.716Z,-1.95
2023-02-06T11:06:33.588Z,-2.00
2023-02-06T11:09:00.995Z,-2.10
2023-02-06T11:11:33.557Z,-2.22
2023-02-06T11:14:07.858Z,-2.34
2023-02-06T11:16:39.035Z,-2.08
2023-02-06T11:19:24.272Z,-2.00
2023-02-06T11:22:08.126Z,-2.05
2023-02-06T11:24:36.158Z,-2.07
2023-02-06T11:27:15.369Z,-2.04
2023-02-06T11:29:50.994Z,-1.83
2023-02-06T11:33:02.545Z,-1.85
2023-02-06T11:35:37.357Z,-2.02
2023-02-06T11:38:16.311Z,-1.93
2023-02-06T11:40:53.717Z,-1.82
2023-02-06T11:43:24.234Z,-1.64
2023-02-06T11:46:25.382Z,-1.73
2023-02-06T11:48:55.890Z,-1.40
2023-02-06T11:51:24.693Z,-1.53
2023-02-06T11:53:56.906Z,-1.46
2023-02-06T11:56:25.497Z,-1.46
2023-02-06T11:59:27.289Z,-1.69
2023-02-06T12:01:55.452Z,-1.68
2023-02-06T12:04:39.818Z,-1.44
2023-02-06T12:07:18.922Z,-1.44
2023-02-06T12:09:46.563Z,-1.39
2023-02-06T12:12:23.936Z,-1.28
2023-02-06T12:14:56.658Z,-1.29
2023-02-06T12:17:40.914Z,-1.10
2023-02-06T12:20:16.453Z,-0.93
2023-02-06T12:22:50.501Z,-0.89
2023-02-06T12:25:40.269Z,-0.99
2023-02-06T12:28:20.217Z,-0.99
2023-02-06T12:31:23.410Z,-1.02
2023-02-06T12:33:55.374Z,-1.10
2023-02-06T12:36:25.975Z,-1.09
2023-02-06T12:39:01.114Z,-1.05
2023-02-06T12:41:50.005Z,-1.16
2023-02-06T12:44:45.719Z,-1.11
2023-02-06T12:47:29.215Z,-1.13
2023-02-06T12:50:24.212Z,-1.26
2023-02-06T12:53:13.299Z,-1.33
2023-02-06T12:55:49.638Z,-1.48
2023-02-06T12:58:43.354Z,-1.49
2023-02-06T13:01:34.658Z,-1.43
2023-02-06T13:04:06.952Z,-1.34
2023-02-06T13:06:56.788Z,-1.27
2023-02-06T13:09:29.200Z,-1.15
2023-02-06T13:12:15.978Z,-1.07
2023-02-06T13:14:50.002Z,-1.04
2023-02-06T13:17:39.178Z,-0.99
2023-02-06T13:20:11.232Z,-0.95
2023-02-06T13:22:43.515Z,-0.75
2023-02-06T13:25:26.554Z,-0.61
2023-02-06T13:27:58.616Z,-0.62
2023-02-06T13:30:28.995Z,-0.71
2023-02-06T13:33:10.955Z,-0.82
2023-02-06T13:35:54.534Z,-0.83
2023-02-06T13:38:24.714Z,-0.93
2023-02-06T13:41:16.965Z,-0.69
2023-02-06T13:44:06.838Z,-1.01
2023-02-06T13:46:37.261Z,-1.17
2023-02-06T13:49:36.139Z,-1.22
2023-02-06T13:52:32.744Z,-1.27
2023-02-06T13:55:37.503Z,-1.22
2023-02-06T13:58:32.535Z,-0.94
2023-02-06T14:01:01.308Z,-0.91
2023-02-06T14:03:35.021Z,-0.80
2023-02-06T14:06:11.431Z,-0.90
2023-02-06T14:08:57.354Z,-1.13
2023-02-06T14:12:03.943Z,-1.02
2023-02-06T14:14:56.912Z,-1.23
2023-02-06T14:17:46.560Z,-1.29
2023-02-06T14:20:53.073Z,-1.36
2023-02-06T14:23:35.858Z,-1.41
2023-02-06T14:26:15.810Z,-1.42
2023-02-06T14:29:03.540Z,-1.50
2023-02-06T14:31:49.771Z,-1.54
2023-02-06T14:34:42.677Z,-1.50
2023-02-06T14:37:50.838Z,-1.51
2023-02-06T14:40:27.012Z,-1.52
2023-02-06T14:42:58.418Z,-1.67
2023-02-06T14:45:38.524Z,-1.73
2023-02-06T14:48:34.547Z,-1.74
2023-02-06T14:51:02.453Z,-1.73
2023-02-06T14:53:35.664Z,-1.77
2023-02-06T14:56:12.486Z,-1.75
2023-02-06T14:58:40.189Z,-1.83
2023-02-06T15:01:21.451Z,-1.85
2023-02-06T15:03:52.940Z,-1.85
2023-02-06T15:06:35.637Z,-1.82
2023-02-06T15:09:04.057Z,-1.77
2023-02-06T15:11:35.010Z,-1.80
2023-02-06T15:14:19.204Z,-1.83
2023-02-06T15:16:48.525Z,-1.89
2023-02-06T15:19:25.324Z,-1.96
2023-02-06T15:22:02.312Z,-2.02
2023-02-06T15:25:14.885Z,-2.02
2023-02-06T15:27:42.423Z,-2.02
2023-02-06T15:30:22.363Z,-2.08
2023-02-06T15:32:56.040Z,-2.08
2023-02-06T15:35:25.084Z,-2.12
2023-02-06T15:37:54.119Z,-2.08
2023-02-06T15:40:31.121Z,-2.10
2023-02-06T15:42:59.897Z,-2.08
2023-02-06T15:45:31.165Z,-2.12
2023-02-06T15:48:00.201Z,-2.19
2023-02-06T15:50:28.824Z,-2.22
2023-02-06T15:52:56.517Z,-2.21
2023-02-06T15:55:34.416Z,-2.26
2023-02-06T15:58:04.856Z,-2.27
2023-02-06T16:00:36.118Z,-2.30
2023-02-06T16:03:08.187Z,-2.32
2023-02-06T16:05:41.090Z,-2.33
2023-02-06T16:08:28.220Z,-2.33
2023-02-06T16:11:30.990Z,-2.38
2023-02-06T16:13:59.053Z,-2.42
2023-02-06T16:16:28.471Z,-2.45
2023-02-06T16:18:58.725Z,-2.46
2023-02-06T16:21:31.790Z,-2.40
2023-02-06T16:24:03.382Z,-2.42
2023-02-06T16:26:44.341Z,-2.42
2023-02-06T16:29:11.881Z,-2.44
2023-02-06T16:31:42.866Z,-2.47
2023-02-06T16:34:29.169Z,-2.41
2023-02-06T16:36:56.672Z,-2.36
2023-02-06T16:39:24.119Z,-2.44
2023-02-06T16:41:53.134Z,-2.58
2023-02-06T16:44:21.088Z,-2.60
2023-02-06T16:46:48.554Z,-2.56
2023-02-06T16:49:18.798Z,-2.56
2023-02-06T16:51:47.926Z,-2.64
2023-02-06T16:54:26.394Z,-2.82
2023-02-06T16:56:55.997Z,-2.91
2023-02-06T16:59:23.555Z,-2.91
2023-02-06T17:01:51.038Z,-2.98
2023-02-06T17:04:18.654Z,-3.03
2023-02-06T17:06:46.158Z,-3.05
2023-02-06T17:09:17.485Z,-3.02
2023-02-06T17:11:44.958Z,-3.05
2023-02-06T17:14:12.483Z,-3.05
2023-02-06T17:16:40.108Z,-3.09
2023-02-06T17:19:07.736Z,-3.12
2023-02-06T17:21:35.176Z,-3.22
2023-02-06T17:24:02.619Z,-3.25
2023-02-06T17:26:30.160Z,-3.27
2023-02-06T17:28:57.679Z,-3.27
2023-02-06T17:31:25.378Z,-3.30
2023-02-06T17:33:52.954Z,-3.31
2023-02-06T17:36:29.689Z,-3.35
2023-02-06T17:39:00.676Z,-3.41
2023-02-06T17:41:28.482Z,-3.42
2023-02-06T17:43:56.045Z,-3.43
2023-02-06T17:46:23.905Z,-3.45
2023-02-06T17:48:51.345Z,-3.43
2023-02-06T17:51:18.893Z,-3.48
2023-02-06T17:53:46.480Z,-3.47
2023-02-06T17:56:14.115Z,-3.43
2023-02-06T17:58:43.202Z,-3.46
2023-02-06T18:01:15.944Z,-3.50
2023-02-06T18:03:44.378Z,-3.53
2023-02-06T18:06:13.289Z,-3.59
2023-02-06T18:08:41.446Z,-3.62
2023-02-06T18:11:14.769Z,-3.66
2023-02-06T18:13:42.916Z,-3.66
2023-02-06T18:16:18.962Z,-3.65
2023-02-06T18:18:47.181Z,-3.63
2023-02-06T18:21:15.275Z,-3.58
2023-02-06T18:23:42.794Z,-3.54
2023-02-06T18:26:11.040Z,-3.56
2023-02-06T18:28:39.810Z,-3.59
2023-02-06T18:31:40.020Z,-3.55
2023-02-06T18:34:08.433Z,-3.59
2023-02-06T18:36:37.192Z,-3.64
2023-02-06T18:39:06.301Z,-3.69
2023-02-06T18:41:52.650Z,-3.71
2023-02-06T18:44:20.193Z,-3.77
2023-02-06T18:46:47.666Z,-3.79
2023-02-06T18:49:15.205Z,-3.78
2023-02-06T18:51:42.849Z,-3.82
2023-02-06T18:54:10.418Z,-3.82
2023-02-06T18:56:38.776Z,-3.76
2023-02-06T18:59:06.549Z,-3.79
2023-02-06T19:01:34.151Z,-3.92
2023-02-06T19:04:01.618Z,-3.94
2023-02-06T19:06:34.531Z,-3.97
2023-02-06T19:09:07.086Z,-4.02
2023-02-06T19:11:37.956Z,-4.06
2023-02-06T19:14:07.541Z,-4.08
2023-02-06T19:16:38.548Z,-4.09
2023-02-06T19:19:07.834Z,-4.01
2023-02-06T19:21:35.330Z,-4.01
2023-02-06T19:24:02.976Z,-4.09
2023-02-06T19:26:30.862Z,-4.23
2023-02-06T19:28:58.524Z,-4.39
2023-02-06T19:31:26.024Z,-4.52
2023-02-06T19:33:59.546Z,-4.65
2023-02-06T19:36:28.756Z,-4.75
2023-02-06T19:39:01.351Z,-4.84
2023-02-06T19:41:31.097Z,-4.93
2023-02-06T19:44:03.052Z,-5.00
2023-02-06T19:46:31.251Z,-5.07
2023-02-06T19:48:58.839Z,-5.04
2023-02-06T19:51:32.419Z,-5.03
2023-02-06T19:53:59.805Z,-4.99
2023-02-06T19:56:38.472Z,-5.00
2023-02-06T19:59:18.384Z,-5.05
2023-02-06T20:01:48.725Z,-5.09
2023-02-06T20:04:17.223Z,-5.12
2023-02-06T20:06:45.347Z,-5.13
2023-02-06T20:09:15.128Z,-5.05
2023-02-06T20:11:43.180Z,-5.08
2023-02-06T20:14:12.385Z,-5.11
2023-02-06T20:16:41.660Z,-5.12
2023-02-06T20:19:13.314Z,-5.12
2023-02-06T20:21:43.993Z,-5.17
2023-02-06T20:24:15.781Z,-5.19
2023-02-06T20:26:43.365Z,-5.17
2023-02-06T20:29:22.051Z,-5.17
2023-02-06T20:31:50.804Z,-5.18
2023-02-06T20:34:19.224Z,-5.20
2023-02-06T20:36:47.541Z,-5.22
2023-02-06T20:39:15.930Z,-5.19
2023-02-06T20:41:45.597Z,-5.19
2023-02-06T20:44:14.399Z,-5.21
2023-02-06T20:46:42.845Z,-5.22
2023-02-06T20:49:19.749Z,-5.28
2023-02-06T20:51:49.209Z,-5.31
2023-02-06T20:54:18.172Z,-5.38
2023-02-06T20:56:46.055Z,-5.43
2023-02-06T20:59:15.816Z,-5.47
2023-02-06T21:01:43.666Z,-5.51
2023-02-06T21:04:12.744Z,-5.59
2023-02-06T21:06:40.844Z,-5.64
2023-02-06T21:09:09.669Z,-5.69
2023-02-06T21:11:41.349Z,-5.73
2023-02-06T21:14:09.417Z,-5.80
2023-02-06T21:16:38.222Z,-5.86
2023-02-06T21:19:07.513Z,-5.91
2023-02-06T21:21:35.457Z,-5.95
2023-02-06T21:24:03.247Z,-5.99
2023-02-06T21:26:30.904Z,-6.03
2023-02-06T21:28:59.806Z,-6.05
2023-02-06T21:31:37.341Z,-6.11
2023-02-06T21:34:09.810Z,-6.18
2023-02-06T21:36:39.026Z,-6.24
2023-02-06T21:39:07.511Z,-6.29
2023-02-06T21:41:36.512Z,-6.33
2023-02-06T21:44:04.660Z,-6.38
2023-02-06T21:46:32.270Z,-6.42
2023-02-06T21:48:59.873Z,-6.41
2023-02-06T21:51:27.779Z,-6.39
2023-02-06T21:53:56.573Z,-6.38
2023-02-06T21:56:28.060Z,-6.34
2023-02-06T21:58:56.663Z,-6.36
2023-02-06T22:01:28.753Z,-6.37
2023-02-06T22:03:57.464Z,-6.33
2023-02-06T22:06:25.043Z,-6.30
2023-02-06T22:08:54.393Z,-6.26
2023-02-06T22:11:27.614Z,-6.23
2023-02-06T22:14:00.345Z,-6.19
2023-02-06T22:16:29.272Z,-6.18
2023-02-06T22:18:57.240Z,-6.16
2023-02-06T22:21:26.948Z,-6.20
2023-02-06T22:23:58.165Z,-6.21
2023-02-06T22:26:27.095Z,-6.20
2023-02-06T22:28:54.714Z,-6.28
2023-02-06T22:31:25.226Z,-6.33
2023-02-06T22:33:53.618Z,-6.35
2023-02-06T22:36:24.193Z,-6.32
2023-02-06T22:38:57.492Z,-6.26
2023-02-06T22:41:25.238Z,-6.24
2023-02-06T22:43:53.067Z,-6.24
2023-02-06T22:46:28.976Z,-6.26
2023-02-06T22:48:57.356Z,-6.21
2023-02-06T22:51:25.464Z,-6.20
2023-02-06T22:53:54.462Z,-6.19
2023-02-06T22:56:29.678Z,-6.19
2023-02-06T22:59:02.421Z,-6.20
2023-02-06T23:01:33.309Z,-6.21
2023-02-06T23:04:02.249Z,-6.18
2023-02-06T23:06:31.223Z,-6.14
2023-02-06T23:09:00.740Z,-6.13
2023-02-06T23:11:29.218Z,-6.14
2023-02-06T23:14:00.003Z,-6.15
2023-02-06T23:16:28.921Z,-6.20
2023-02-06T23:18:56.532Z,-6.20
2023-02-06T23:21:26.032Z,-6.29
2023-02-06T23:23:55.901Z,-6.26
2023-02-06T23:26:24.190Z,-6.22
2023-02-06T23:28:51.668Z,-6.19
2023-02-06T23:31:19.475Z,-6.28
2023-02-06T23:33:46.935Z,-6.34
2023-02-06T23:36:16.740Z,-6.36
2023-02-06T23:38:44.492Z,-6.36
2023-02-06T23:41:18.640Z,-6.36
2023-02-06T23:43:51.379Z,-6.35
2023-02-06T23:46:20.264Z,-6.35
2023-02-06T23:48:51.790Z,-6.36
2023-02-06T23:51:20.708Z,-6.42
2023-02-06T23:53:49.238Z,-6.42
2023-02-06T23:56:20.004Z,-6.43
2023-02-06T23:58:47.839Z,-6.51
